sensor_id;sensor_type;location;lat;lon;timestamp;temperature;humidity
29803;DHT22;16702;50.898;4.662;2022-11-25T00:00:53;11.70;99.90
29803;DHT22;16702;50.898;4.662;2022-11-25T00:03:23;11.70;99.90
29803;DHT22;16702;50.898;4.662;2022-11-25T00:05:54;11.70;99.90
29803;DHT22;16702;50.898;4.662;2022-11-25T00:08:24;11.70;99.90
29803;DHT22;16702;50.898;4.662;2022-11-25T00:10:54;11.70;99.90
29803;DHT22;16702;50.898;4.662;2022-11-25T00:13:24;11.70;99.90
29803;DHT22;16702;50.898;4.662;2022-11-25T00:16:03;11.70;99.90
29803;DHT22;16702;50.898;4.662;2022-11-25T00:18:35;11.80;99.90
29803;DHT22;16702;50.898;4.662;2022-11-25T00:21:06;11.70;99.90
29803;DHT22;16702;50.898;4.662;2022-11-25T00:23:37;11.80;99.90
29803;DHT22;16702;50.898;4.662;2022-11-25T00:26:10;11.70;99.90
29803;DHT22;16702;50.898;4.662;2022-11-25T00:28:42;11.80;99.90
29803;DHT22;16702;50.898;4.662;2022-11-25T00:31:16;11.80;99.90
29803;DHT22;16702;50.898;4.662;2022-11-25T00:33:48;11.80;99.90
29803;DHT22;16702;50.898;4.662;2022-11-25T00:36:20;11.80;99.90
29803;DHT22;16702;50.898;4.662;2022-11-25T00:38:52;11.80;99.90
29803;DHT22;16702;50.898;4.662;2022-11-25T00:41:24;11.70;99.90
29803;DHT22;16702;50.898;4.662;2022-11-25T00:44:08;11.70;99.90
29803;DHT22;16702;50.898;4.662;2022-11-25T00:46:53;11.70;99.90
29803;DHT22;16702;50.898;4.662;2022-11-25T00:49:26;11.70;99.90
29803;DHT22;16702;50.898;4.662;2022-11-25T00:51:56;11.70;99.90
29803;DHT22;16702;50.898;4.662;2022-11-25T00:54:27;11.70;99.90
29803;DHT22;16702;50.898;4.662;2022-11-25T00:56:57;11.70;99.90
29803;DHT22;16702;50.898;4.662;2022-11-25T00:59:29;11.70;99.90
29803;DHT22;16702;50.898;4.662;2022-11-25T01:02:02;11.70;99.90
29803;DHT22;16702;50.898;4.662;2022-11-25T01:04:32;11.70;99.90
29803;DHT22;16702;50.898;4.662;2022-11-25T01:07:04;11.70;99.90
29803;DHT22;16702;50.898;4.662;2022-11-25T01:09:34;11.70;99.90
29803;DHT22;16702;50.898;4.662;2022-11-25T01:12:09;11.70;99.90
29803;DHT22;16702;50.898;4.662;2022-11-25T01:14:42;11.50;99.90
29803;DHT22;16702;50.898;4.662;2022-11-25T01:17:15;11.50;99.90
29803;DHT22;16702;50.898;4.662;2022-11-25T01:19:46;11.40;99.90
29803;DHT22;16702;50.898;4.662;2022-11-25T01:22:19;11.40;99.90
29803;DHT22;16702;50.898;4.662;2022-11-25T01:24:49;11.30;99.90
29803;DHT22;16702;50.898;4.662;2022-11-25T01:27:19;11.30;99.90
29803;DHT22;16702;50.898;4.662;2022-11-25T01:29:50;11.20;99.90
29803;DHT22;16702;50.898;4.662;2022-11-25T01:32:23;11.20;99.90
29803;DHT22;16702;50.898;4.662;2022-11-25T01:34:58;11.20;99.90
29803;DHT22;16702;50.898;4.662;2022-11-25T01:37:30;11.20;99.90
29803;DHT22;16702;50.898;4.662;2022-11-25T01:40:03;11.20;99.90
29803;DHT22;16702;50.898;4.662;2022-11-25T01:42:34;11.20;99.90
29803;DHT22;16702;50.898;4.662;2022-11-25T01:45:31;11.10;99.90
29803;DHT22;16702;50.898;4.662;2022-11-25T01:48:08;11.20;99.90
29803;DHT22;16702;50.898;4.662;2022-11-25T01:50:40;11.10;99.90
29803;DHT22;16702;50.898;4.662;2022-11-25T01:53:13;11.20;99.90
29803;DHT22;16702;50.898;4.662;2022-11-25T01:55:46;11.00;99.90
29803;DHT22;16702;50.898;4.662;2022-11-25T01:58:21;11.00;99.90
29803;DHT22;16702;50.898;4.662;2022-11-25T02:00:54;11.10;99.90
29803;DHT22;16702;50.898;4.662;2022-11-25T02:03:30;11.00;99.90
29803;DHT22;16702;50.898;4.662;2022-11-25T02:06:06;11.00;99.90
29803;DHT22;16702;50.898;4.662;2022-11-25T02:08:40;11.00;99.90
29803;DHT22;16702;50.898;4.662;2022-11-25T02:11:12;11.10;99.90
29803;DHT22;16702;50.898;4.662;2022-11-25T02:13:46;11.00;99.90
29803;DHT22;16702;50.898;4.662;2022-11-25T02:16:17;11.00;99.90
29803;DHT22;16702;50.898;4.662;2022-11-25T02:18:50;10.90;99.90
29803;DHT22;16702;50.898;4.662;2022-11-25T02:21:27;10.90;99.90
29803;DHT22;16702;50.898;4.662;2022-11-25T02:24:03;11.00;99.90
29803;DHT22;16702;50.898;4.662;2022-11-25T02:26:38;10.90;99.90
29803;DHT22;16702;50.898;4.662;2022-11-25T02:29:12;10.90;99.90
29803;DHT22;16702;50.898;4.662;2022-11-25T02:31:43;10.80;99.90
29803;DHT22;16702;50.898;4.662;2022-11-25T02:34:13;10.80;99.90
29803;DHT22;16702;50.898;4.662;2022-11-25T02:36:44;10.80;99.90
29803;DHT22;16702;50.898;4.662;2022-11-25T02:39:14;10.90;99.90
29803;DHT22;16702;50.898;4.662;2022-11-25T02:41:52;10.90;99.90
29803;DHT22;16702;50.898;4.662;2022-11-25T02:44:24;10.90;99.90
29803;DHT22;16702;50.898;4.662;2022-11-25T02:46:55;10.90;99.90
29803;DHT22;16702;50.898;4.662;2022-11-25T02:49:25;10.90;99.90
29803;DHT22;16702;50.898;4.662;2022-11-25T02:51:55;10.80;99.90
29803;DHT22;16702;50.898;4.662;2022-11-25T02:54:27;10.80;99.90
29803;DHT22;16702;50.898;4.662;2022-11-25T02:57:02;10.80;99.90
29803;DHT22;16702;50.898;4.662;2022-11-25T02:59:34;10.80;99.90
29803;DHT22;16702;50.898;4.662;2022-11-25T03:02:05;10.80;99.90
29803;DHT22;16702;50.898;4.662;2022-11-25T03:04:36;10.90;99.90
29803;DHT22;16702;50.898;4.662;2022-11-25T03:07:06;10.80;99.90
29803;DHT22;16702;50.898;4.662;2022-11-25T03:09:37;10.80;99.90
29803;DHT22;16702;50.898;4.662;2022-11-25T03:12:13;10.80;99.90
29803;DHT22;16702;50.898;4.662;2022-11-25T03:14:52;10.80;99.90
29803;DHT22;16702;50.898;4.662;2022-11-25T03:17:23;10.70;99.90
29803;DHT22;16702;50.898;4.662;2022-11-25T03:19:54;10.80;99.90
29803;DHT22;16702;50.898;4.662;2022-11-25T03:22:24;10.70;99.90
29803;DHT22;16702;50.898;4.662;2022-11-25T03:24:54;10.70;99.90
29803;DHT22;16702;50.898;4.662;2022-11-25T03:27:27;10.70;99.90
29803;DHT22;16702;50.898;4.662;2022-11-25T03:29:58;10.70;99.90
29803;DHT22;16702;50.898;4.662;2022-11-25T03:32:29;10.70;99.90
29803;DHT22;16702;50.898;4.662;2022-11-25T03:34:59;10.70;99.90
29803;DHT22;16702;50.898;4.662;2022-11-25T03:37:29;10.70;99.90
29803;DHT22;16702;50.898;4.662;2022-11-25T03:39:59;10.70;99.90
29803;DHT22;16702;50.898;4.662;2022-11-25T03:42:33;10.70;99.90
29803;DHT22;16702;50.898;4.662;2022-11-25T03:45:07;10.60;99.90
29803;DHT22;16702;50.898;4.662;2022-11-25T03:47:39;10.60;99.90
29803;DHT22;16702;50.898;4.662;2022-11-25T03:50:12;10.60;99.90
29803;DHT22;16702;50.898;4.662;2022-11-25T03:52:44;10.70;99.90
29803;DHT22;16702;50.898;4.662;2022-11-25T03:55:17;10.60;99.90
29803;DHT22;16702;50.898;4.662;2022-11-25T03:57:52;10.60;99.90
29803;DHT22;16702;50.898;4.662;2022-11-25T04:00:24;10.60;99.90
29803;DHT22;16702;50.898;4.662;2022-11-25T04:03:01;10.50;99.90
29803;DHT22;16702;50.898;4.662;2022-11-25T04:05:32;10.60;99.90
29803;DHT22;16702;50.898;4.662;2022-11-25T04:08:06;10.60;99.90
29803;DHT22;16702;50.898;4.662;2022-11-25T04:10:37;10.50;99.90
29803;DHT22;16702;50.898;4.662;2022-11-25T04:13:12;10.50;99.90
29803;DHT22;16702;50.898;4.662;2022-11-25T04:15:44;10.50;99.90
29803;DHT22;16702;50.898;4.662;2022-11-25T04:18:18;10.60;99.90
29803;DHT22;16702;50.898;4.662;2022-11-25T04:20:52;10.60;99.90
29803;DHT22;16702;50.898;4.662;2022-11-25T04:23:23;10.60;99.90
29803;DHT22;16702;50.898;4.662;2022-11-25T04:25:59;10.50;99.90
29803;DHT22;16702;50.898;4.662;2022-11-25T04:28:37;10.50;99.90
29803;DHT22;16702;50.898;4.662;2022-11-25T04:31:08;10.50;99.90
29803;DHT22;16702;50.898;4.662;2022-11-25T04:33:41;10.50;99.90
29803;DHT22;16702;50.898;4.662;2022-11-25T04:36:19;10.60;99.90
29803;DHT22;16702;50.898;4.662;2022-11-25T04:38:49;10.50;99.90
29803;DHT22;16702;50.898;4.662;2022-11-25T04:41:21;10.50;99.90
29803;DHT22;16702;50.898;4.662;2022-11-25T04:43:55;10.40;99.90
29803;DHT22;16702;50.898;4.662;2022-11-25T04:46:33;10.40;99.90
29803;DHT22;16702;50.898;4.662;2022-11-25T04:49:05;10.40;99.90
29803;DHT22;16702;50.898;4.662;2022-11-25T04:51:37;10.50;99.90
29803;DHT22;16702;50.898;4.662;2022-11-25T04:54:07;10.40;99.90
29803;DHT22;16702;50.898;4.662;2022-11-25T04:56:44;10.30;99.90
29803;DHT22;16702;50.898;4.662;2022-11-25T04:59:18;10.40;99.90
29803;DHT22;16702;50.898;4.662;2022-11-25T05:02:00;10.30;99.90
29803;DHT22;16702;50.898;4.662;2022-11-25T05:04:35;10.40;99.90
29803;DHT22;16702;50.898;4.662;2022-11-25T05:07:07;10.30;99.90
29803;DHT22;16702;50.898;4.662;2022-11-25T05:09:40;10.30;99.90
29803;DHT22;16702;50.898;4.662;2022-11-25T05:12:19;10.30;99.90
29803;DHT22;16702;50.898;4.662;2022-11-25T05:14:52;10.30;99.90
29803;DHT22;16702;50.898;4.662;2022-11-25T05:17:25;10.30;99.90
29803;DHT22;16702;50.898;4.662;2022-11-25T05:19:55;10.30;99.90
29803;DHT22;16702;50.898;4.662;2022-11-25T05:22:29;10.30;99.90
29803;DHT22;16702;50.898;4.662;2022-11-25T05:25:00;10.20;99.90
29803;DHT22;16702;50.898;4.662;2022-11-25T05:27:35;10.30;99.90
29803;DHT22;16702;50.898;4.662;2022-11-25T05:30:11;10.30;99.90
29803;DHT22;16702;50.898;4.662;2022-11-25T05:32:43;10.20;99.90
29803;DHT22;16702;50.898;4.662;2022-11-25T05:35:14;10.30;99.90
29803;DHT22;16702;50.898;4.662;2022-11-25T05:37:45;10.20;99.90
29803;DHT22;16702;50.898;4.662;2022-11-25T05:40:16;10.10;99.90
29803;DHT22;16702;50.898;4.662;2022-11-25T05:43:01;10.20;99.90
29803;DHT22;16702;50.898;4.662;2022-11-25T05:45:37;10.10;99.90
29803;DHT22;16702;50.898;4.662;2022-11-25T05:48:09;10.10;99.90
29803;DHT22;16702;50.898;4.662;2022-11-25T05:50:41;10.10;99.90
29803;DHT22;16702;50.898;4.662;2022-11-25T05:53:17;10.10;99.90
29803;DHT22;16702;50.898;4.662;2022-11-25T05:55:54;10.00;99.90
29803;DHT22;16702;50.898;4.662;2022-11-25T05:58:44;10.10;99.90
29803;DHT22;16702;50.898;4.662;2022-11-25T06:01:17;10.00;99.90
29803;DHT22;16702;50.898;4.662;2022-11-25T06:03:48;10.00;99.90
29803;DHT22;16702;50.898;4.662;2022-11-25T06:06:19;10.00;99.90
29803;DHT22;16702;50.898;4.662;2022-11-25T06:08:49;9.90;99.90
29803;DHT22;16702;50.898;4.662;2022-11-25T06:11:21;9.90;99.90
29803;DHT22;16702;50.898;4.662;2022-11-25T06:13:51;9.90;99.90
29803;DHT22;16702;50.898;4.662;2022-11-25T06:16:25;9.90;99.90
29803;DHT22;16702;50.898;4.662;2022-11-25T06:19:17;10.00;99.90
29803;DHT22;16702;50.898;4.662;2022-11-25T06:21:48;9.90;99.90
29803;DHT22;16702;50.898;4.662;2022-11-25T06:24:18;9.90;99.90
29803;DHT22;16702;50.898;4.662;2022-11-25T06:26:57;9.90;99.90
29803;DHT22;16702;50.898;4.662;2022-11-25T06:29:27;9.90;99.90
29803;DHT22;16702;50.898;4.662;2022-11-25T06:32:01;9.90;99.90
29803;DHT22;16702;50.898;4.662;2022-11-25T06:34:40;9.90;99.90
29803;DHT22;16702;50.898;4.662;2022-11-25T06:37:26;9.90;99.90
29803;DHT22;16702;50.898;4.662;2022-11-25T06:39:57;9.90;99.90
29803;DHT22;16702;50.898;4.662;2022-11-25T06:42:27;10.00;99.90
29803;DHT22;16702;50.898;4.662;2022-11-25T06:44:57;9.90;99.90
29803;DHT22;16702;50.898;4.662;2022-11-25T06:47:30;9.90;99.90
29803;DHT22;16702;50.898;4.662;2022-11-25T06:50:01;9.90;99.90
29803;DHT22;16702;50.898;4.662;2022-11-25T06:52:31;10.00;99.90
29803;DHT22;16702;50.898;4.662;2022-11-25T06:55:02;9.80;99.90
29803;DHT22;16702;50.898;4.662;2022-11-25T06:57:32;9.80;99.90
29803;DHT22;16702;50.898;4.662;2022-11-25T07:00:04;9.80;99.90
29803;DHT22;16702;50.898;4.662;2022-11-25T07:02:37;9.80;99.90
29803;DHT22;16702;50.898;4.662;2022-11-25T07:05:14;9.80;99.90
29803;DHT22;16702;50.898;4.662;2022-11-25T07:07:44;9.80;99.90
29803;DHT22;16702;50.898;4.662;2022-11-25T07:10:15;9.80;99.90
29803;DHT22;16702;50.898;4.662;2022-11-25T07:12:45;9.80;99.90
29803;DHT22;16702;50.898;4.662;2022-11-25T07:15:16;9.70;99.90
29803;DHT22;16702;50.898;4.662;2022-11-25T07:17:48;9.70;99.90
29803;DHT22;16702;50.898;4.662;2022-11-25T07:20:19;9.70;99.90
29803;DHT22;16702;50.898;4.662;2022-11-25T07:22:51;9.70;99.90
29803;DHT22;16702;50.898;4.662;2022-11-25T07:25:21;9.70;99.90
29803;DHT22;16702;50.898;4.662;2022-11-25T07:27:56;9.70;99.90
29803;DHT22;16702;50.898;4.662;2022-11-25T07:30:27;9.70;99.90
29803;DHT22;16702;50.898;4.662;2022-11-25T07:33:20;9.60;99.90
29803;DHT22;16702;50.898;4.662;2022-11-25T07:35:51;9.60;99.90
29803;DHT22;16702;50.898;4.662;2022-11-25T07:38:21;9.60;99.90
29803;DHT22;16702;50.898;4.662;2022-11-25T07:40:51;9.60;99.90
29803;DHT22;16702;50.898;4.662;2022-11-25T07:43:21;9.60;99.90
29803;DHT22;16702;50.898;4.662;2022-11-25T07:45:52;9.60;99.90
29803;DHT22;16702;50.898;4.662;2022-11-25T07:48:25;9.60;99.90
29803;DHT22;16702;50.898;4.662;2022-11-25T07:50:55;9.60;99.90
29803;DHT22;16702;50.898;4.662;2022-11-25T07:53:26;9.50;99.90
29803;DHT22;16702;50.898;4.662;2022-11-25T07:55:59;9.50;99.90
29803;DHT22;16702;50.898;4.662;2022-11-25T07:58:31;9.50;99.90
29803;DHT22;16702;50.898;4.662;2022-11-25T08:01:01;9.50;99.90
29803;DHT22;16702;50.898;4.662;2022-11-25T08:03:35;9.60;99.90
29803;DHT22;16702;50.898;4.662;2022-11-25T08:06:08;9.50;99.90
29803;DHT22;16702;50.898;4.662;2022-11-25T08:08:40;9.40;99.90
29803;DHT22;16702;50.898;4.662;2022-11-25T08:11:12;9.50;99.90
29803;DHT22;16702;50.898;4.662;2022-11-25T08:13:43;9.60;99.90
29803;DHT22;16702;50.898;4.662;2022-11-25T08:16:16;9.60;99.90
29803;DHT22;16702;50.898;4.662;2022-11-25T08:18:49;9.60;99.90
29803;DHT22;16702;50.898;4.662;2022-11-25T08:21:20;9.60;99.90
29803;DHT22;16702;50.898;4.662;2022-11-25T08:23:50;9.40;99.90
29803;DHT22;16702;50.898;4.662;2022-11-25T08:26:23;9.40;99.90
29803;DHT22;16702;50.898;4.662;2022-11-25T08:28:57;9.40;99.90
29803;DHT22;16702;50.898;4.662;2022-11-25T08:31:29;9.40;99.90
29803;DHT22;16702;50.898;4.662;2022-11-25T08:34:04;9.40;99.90
29803;DHT22;16702;50.898;4.662;2022-11-25T08:36:35;9.40;99.90
29803;DHT22;16702;50.898;4.662;2022-11-25T08:39:12;9.50;99.90
29803;DHT22;16702;50.898;4.662;2022-11-25T08:42:03;9.50;99.90
29803;DHT22;16702;50.898;4.662;2022-11-25T08:44:34;9.50;99.90
29803;DHT22;16702;50.898;4.662;2022-11-25T08:47:04;9.50;99.90
29803;DHT22;16702;50.898;4.662;2022-11-25T08:49:38;9.50;99.90
29803;DHT22;16702;50.898;4.662;2022-11-25T08:52:09;9.50;99.90
29803;DHT22;16702;50.898;4.662;2022-11-25T08:54:40;9.50;99.90
29803;DHT22;16702;50.898;4.662;2022-11-25T08:57:10;9.50;99.90
29803;DHT22;16702;50.898;4.662;2022-11-25T08:59:40;9.50;99.90
29803;DHT22;16702;50.898;4.662;2022-11-25T09:02:13;9.60;99.90
29803;DHT22;16702;50.898;4.662;2022-11-25T09:04:47;9.80;99.90
29803;DHT22;16702;50.898;4.662;2022-11-25T09:07:17;9.70;99.90
29803;DHT22;16702;50.898;4.662;2022-11-25T09:09:55;9.70;99.90
29803;DHT22;16702;50.898;4.662;2022-11-25T09:12:25;9.70;99.90
29803;DHT22;16702;50.898;4.662;2022-11-25T09:14:57;9.70;99.90
29803;DHT22;16702;50.898;4.662;2022-11-25T09:17:27;9.70;99.90
29803;DHT22;16702;50.898;4.662;2022-11-25T09:20:00;9.70;99.90
29803;DHT22;16702;50.898;4.662;2022-11-25T09:22:31;9.70;99.90
29803;DHT22;16702;50.898;4.662;2022-11-25T09:25:02;9.70;99.90
29803;DHT22;16702;50.898;4.662;2022-11-25T09:27:32;9.70;99.90
29803;DHT22;16702;50.898;4.662;2022-11-25T09:30:03;9.70;99.90
29803;DHT22;16702;50.898;4.662;2022-11-25T09:32:34;9.70;99.90
29803;DHT22;16702;50.898;4.662;2022-11-25T09:35:07;9.70;99.90
29803;DHT22;16702;50.898;4.662;2022-11-25T09:37:38;9.70;99.90
29803;DHT22;16702;50.898;4.662;2022-11-25T09:40:17;9.70;99.90
29803;DHT22;16702;50.898;4.662;2022-11-25T09:42:53;9.70;99.90
29803;DHT22;16702;50.898;4.662;2022-11-25T09:45:45;9.70;99.90
29803;DHT22;16702;50.898;4.662;2022-11-25T09:48:47;9.80;99.90
29803;DHT22;16702;50.898;4.662;2022-11-25T09:51:29;9.80;99.90
29803;DHT22;16702;50.898;4.662;2022-11-25T09:54:09;9.80;99.90
29803;DHT22;16702;50.898;4.662;2022-11-25T09:56:42;9.80;99.90
29803;DHT22;16702;50.898;4.662;2022-11-25T09:59:17;9.90;99.90
29803;DHT22;16702;50.898;4.662;2022-11-25T10:01:51;9.90;99.90
29803;DHT22;16702;50.898;4.662;2022-11-25T10:04:26;10.00;99.90
29803;DHT22;16702;50.898;4.662;2022-11-25T10:07:02;9.90;99.90
29803;DHT22;16702;50.898;4.662;2022-11-25T10:09:34;10.00;99.90
29803;DHT22;16702;50.898;4.662;2022-11-25T10:12:12;10.10;99.90
29803;DHT22;16702;50.898;4.662;2022-11-25T10:14:48;10.10;99.90
29803;DHT22;16702;50.898;4.662;2022-11-25T10:17:27;10.10;99.90
29803;DHT22;16702;50.898;4.662;2022-11-25T10:20:02;10.10;99.90
29803;DHT22;16702;50.898;4.662;2022-11-25T10:22:41;10.10;99.90
29803;DHT22;16702;50.898;4.662;2022-11-25T10:25:14;10.20;99.90
29803;DHT22;16702;50.898;4.662;2022-11-25T10:27:49;10.20;99.90
29803;DHT22;16702;50.898;4.662;2022-11-25T10:30:22;10.20;99.90
29803;DHT22;16702;50.898;4.662;2022-11-25T10:33:08;10.30;99.90
29803;DHT22;16702;50.898;4.662;2022-11-25T10:35:44;10.30;99.90
29803;DHT22;16702;50.898;4.662;2022-11-25T10:38:25;10.40;99.90
29803;DHT22;16702;50.898;4.662;2022-11-25T10:40:57;10.40;99.90
29803;DHT22;16702;50.898;4.662;2022-11-25T10:43:28;10.40;99.90
29803;DHT22;16702;50.898;4.662;2022-11-25T10:46:06;10.50;99.90
29803;DHT22;16702;50.898;4.662;2022-11-25T10:48:51;10.50;99.90
29803;DHT22;16702;50.898;4.662;2022-11-25T10:51:34;10.60;99.90
29803;DHT22;16702;50.898;4.662;2022-11-25T10:54:13;10.60;99.90
29803;DHT22;16702;50.898;4.662;2022-11-25T10:56:55;10.60;99.90
29803;DHT22;16702;50.898;4.662;2022-11-25T10:59:29;10.60;99.90
29803;DHT22;16702;50.898;4.662;2022-11-25T11:02:15;10.70;99.90
29803;DHT22;16702;50.898;4.662;2022-11-25T11:04:52;10.80;99.90
29803;DHT22;16702;50.898;4.662;2022-11-25T11:07:24;10.80;99.90
29803;DHT22;16702;50.898;4.662;2022-11-25T11:10:14;10.80;99.90
29803;DHT22;16702;50.898;4.662;2022-11-25T11:12:56;10.80;99.90
29803;DHT22;16702;50.898;4.662;2022-11-25T11:15:28;10.90;99.90
29803;DHT22;16702;50.898;4.662;2022-11-25T11:18:20;10.90;99.90
29803;DHT22;16702;50.898;4.662;2022-11-25T11:20:54;11.00;99.90
29803;DHT22;16702;50.898;4.662;2022-11-25T11:23:25;11.00;99.90
29803;DHT22;16702;50.898;4.662;2022-11-25T11:26:01;11.10;99.90
29803;DHT22;16702;50.898;4.662;2022-11-25T11:28:38;11.00;99.90
29803;DHT22;16702;50.898;4.662;2022-11-25T11:31:17;11.00;99.90
29803;DHT22;16702;50.898;4.662;2022-11-25T11:33:56;11.00;99.90
29803;DHT22;16702;50.898;4.662;2022-11-25T11:36:31;11.10;99.90
29803;DHT22;16702;50.898;4.662;2022-11-25T11:42:12;11.10;99.90
29803;DHT22;16702;50.898;4.662;2022-11-25T11:44:57;11.20;99.90
29803;DHT22;16702;50.898;4.662;2022-11-25T11:47:36;11.20;99.90
29803;DHT22;16702;50.898;4.662;2022-11-25T11:50:24;11.30;99.90
29803;DHT22;16702;50.898;4.662;2022-11-25T11:53:00;11.30;99.90
29803;DHT22;16702;50.898;4.662;2022-11-25T11:55:49;11.30;99.90
29803;DHT22;16702;50.898;4.662;2022-11-25T11:58:56;11.30;99.90
29803;DHT22;16702;50.898;4.662;2022-11-25T12:01:33;11.40;99.90
29803;DHT22;16702;50.898;4.662;2022-11-25T12:04:14;11.40;99.90
29803;DHT22;16702;50.898;4.662;2022-11-25T12:06:57;11.40;99.90
29803;DHT22;16702;50.898;4.662;2022-11-25T12:09:32;11.50;99.90
29803;DHT22;16702;50.898;4.662;2022-11-25T12:12:07;11.60;99.90
29803;DHT22;16702;50.898;4.662;2022-11-25T12:14:42;11.50;99.90
29803;DHT22;16702;50.898;4.662;2022-11-25T12:17:17;11.70;99.90
29803;DHT22;16702;50.898;4.662;2022-11-25T12:19:54;11.60;99.90
29803;DHT22;16702;50.898;4.662;2022-11-25T12:22:30;11.70;99.90
29803;DHT22;16702;50.898;4.662;2022-11-25T12:25:06;11.70;99.90
29803;DHT22;16702;50.898;4.662;2022-11-25T12:27:43;11.70;99.90
29803;DHT22;16702;50.898;4.662;2022-11-25T12:30:18;11.80;99.90
29803;DHT22;16702;50.898;4.662;2022-11-25T12:32:57;11.80;99.90
29803;DHT22;16702;50.898;4.662;2022-11-25T12:35:42;11.70;99.90
29803;DHT22;16702;50.898;4.662;2022-11-25T12:38:26;11.80;99.90
29803;DHT22;16702;50.898;4.662;2022-11-25T12:41:04;11.80;99.90
29803;DHT22;16702;50.898;4.662;2022-11-25T12:43:41;11.80;99.90
29803;DHT22;16702;50.898;4.662;2022-11-25T12:46:21;11.80;99.90
29803;DHT22;16702;50.898;4.662;2022-11-25T12:48:54;11.90;99.90
29803;DHT22;16702;50.898;4.662;2022-11-25T12:51:41;11.90;99.90
29803;DHT22;16702;50.898;4.662;2022-11-25T12:54:27;11.90;99.90
29803;DHT22;16702;50.898;4.662;2022-11-25T13:00:18;11.80;99.90
29803;DHT22;16702;50.898;4.662;2022-11-25T13:06:24;11.90;99.90
29803;DHT22;16702;50.898;4.662;2022-11-25T13:09:01;11.90;99.90
29803;DHT22;16702;50.898;4.662;2022-11-25T13:11:59;11.80;99.90
29803;DHT22;16702;50.898;4.662;2022-11-25T13:14:55;12.00;99.90
29803;DHT22;16702;50.898;4.662;2022-11-25T13:17:34;11.90;99.90
29803;DHT22;16702;50.898;4.662;2022-11-25T13:20:32;11.90;99.90
29803;DHT22;16702;50.898;4.662;2022-11-25T13:23:12;11.90;99.90
29803;DHT22;16702;50.898;4.662;2022-11-25T13:25:51;11.90;99.90
29803;DHT22;16702;50.898;4.662;2022-11-25T13:28:30;11.90;99.90
29803;DHT22;16702;50.898;4.662;2022-11-25T13:31:18;11.80;99.90
29803;DHT22;16702;50.898;4.662;2022-11-25T13:34:01;11.90;99.90
29803;DHT22;16702;50.898;4.662;2022-11-25T13:36:48;11.90;99.90
29803;DHT22;16702;50.898;4.662;2022-11-25T13:39:28;11.80;99.90
29803;DHT22;16702;50.898;4.662;2022-11-25T13:42:01;11.80;99.90
29803;DHT22;16702;50.898;4.662;2022-11-25T13:44:32;11.80;99.90
29803;DHT22;16702;50.898;4.662;2022-11-25T13:47:22;11.80;99.90
29803;DHT22;16702;50.898;4.662;2022-11-25T13:49:54;11.80;99.90
29803;DHT22;16702;50.898;4.662;2022-11-25T13:52:49;11.80;99.90
29803;DHT22;16702;50.898;4.662;2022-11-25T13:55:32;11.80;99.90
29803;DHT22;16702;50.898;4.662;2022-11-25T13:58:13;11.80;99.90
29803;DHT22;16702;50.898;4.662;2022-11-25T14:01:00;11.80;99.90
29803;DHT22;16702;50.898;4.662;2022-11-25T14:03:46;11.70;99.90
29803;DHT22;16702;50.898;4.662;2022-11-25T14:09:32;11.70;99.90
29803;DHT22;16702;50.898;4.662;2022-11-25T14:12:45;11.70;99.90
29803;DHT22;16702;50.898;4.662;2022-11-25T14:15:35;11.70;99.90
29803;DHT22;16702;50.898;4.662;2022-11-25T14:18:29;11.70;99.90
29803;DHT22;16702;50.898;4.662;2022-11-25T14:21:42;11.70;99.90
29803;DHT22;16702;50.898;4.662;2022-11-25T14:24:32;11.70;99.90
29803;DHT22;16702;50.898;4.662;2022-11-25T14:27:10;11.70;99.90
29803;DHT22;16702;50.898;4.662;2022-11-25T14:29:45;11.70;99.90
29803;DHT22;16702;50.898;4.662;2022-11-25T14:32:20;11.70;99.90
29803;DHT22;16702;50.898;4.662;2022-11-25T14:34:55;11.70;99.90
29803;DHT22;16702;50.898;4.662;2022-11-25T14:37:31;11.80;99.90
29803;DHT22;16702;50.898;4.662;2022-11-25T14:40:13;11.70;99.90
29803;DHT22;16702;50.898;4.662;2022-11-25T14:42:47;11.80;99.90
29803;DHT22;16702;50.898;4.662;2022-11-25T14:45:21;11.80;99.90
29803;DHT22;16702;50.898;4.662;2022-11-25T14:47:52;11.70;99.90
29803;DHT22;16702;50.898;4.662;2022-11-25T14:50:22;11.70;99.90
29803;DHT22;16702;50.898;4.662;2022-11-25T14:53:05;11.70;99.90
29803;DHT22;16702;50.898;4.662;2022-11-25T14:55:38;11.70;99.90
29803;DHT22;16702;50.898;4.662;2022-11-25T14:58:11;11.60;99.90
29803;DHT22;16702;50.898;4.662;2022-11-25T15:00:49;11.70;99.90
29803;DHT22;16702;50.898;4.662;2022-11-25T15:03:20;11.70;99.90
29803;DHT22;16702;50.898;4.662;2022-11-25T15:05:54;11.70;99.90
29803;DHT22;16702;50.898;4.662;2022-11-25T15:08:25;11.60;99.90
29803;DHT22;16702;50.898;4.662;2022-11-25T15:10:59;11.60;99.90
29803;DHT22;16702;50.898;4.662;2022-11-25T15:13:33;11.60;99.90
29803;DHT22;16702;50.898;4.662;2022-11-25T15:16:08;11.60;99.90
29803;DHT22;16702;50.898;4.662;2022-11-25T15:18:46;11.60;99.90
29803;DHT22;16702;50.898;4.662;2022-11-25T15:21:20;11.50;99.90
29803;DHT22;16702;50.898;4.662;2022-11-25T15:23:52;11.60;99.90
29803;DHT22;16702;50.898;4.662;2022-11-25T15:26:26;11.60;99.90
29803;DHT22;16702;50.898;4.662;2022-11-25T15:29:00;11.60;99.90
29803;DHT22;16702;50.898;4.662;2022-11-25T15:31:33;11.60;99.90
29803;DHT22;16702;50.898;4.662;2022-11-25T15:34:05;11.50;99.90
29803;DHT22;16702;50.898;4.662;2022-11-25T15:36:36;11.50;99.90
29803;DHT22;16702;50.898;4.662;2022-11-25T15:39:22;11.50;99.90
29803;DHT22;16702;50.898;4.662;2022-11-25T15:42:03;11.50;99.90
29803;DHT22;16702;50.898;4.662;2022-11-25T15:44:39;11.50;99.90
29803;DHT22;16702;50.898;4.662;2022-11-25T15:47:18;11.40;99.90
29803;DHT22;16702;50.898;4.662;2022-11-25T15:49:56;11.40;99.90
29803;DHT22;16702;50.898;4.662;2022-11-25T15:52:29;11.40;99.90
29803;DHT22;16702;50.898;4.662;2022-11-25T15:55:03;11.30;99.90
29803;DHT22;16702;50.898;4.662;2022-11-25T15:57:37;11.30;99.90
29803;DHT22;16702;50.898;4.662;2022-11-25T16:00:15;11.20;99.90
29803;DHT22;16702;50.898;4.662;2022-11-25T16:02:51;11.20;99.90
29803;DHT22;16702;50.898;4.662;2022-11-25T16:05:28;11.20;99.90
29803;DHT22;16702;50.898;4.662;2022-11-25T16:08:15;11.20;99.90
29803;DHT22;16702;50.898;4.662;2022-11-25T16:10:52;11.20;99.90
29803;DHT22;16702;50.898;4.662;2022-11-25T16:13:33;11.10;99.90
29803;DHT22;16702;50.898;4.662;2022-11-25T16:16:24;11.10;99.90
29803;DHT22;16702;50.898;4.662;2022-11-25T16:19:19;11.20;99.90
29803;DHT22;16702;50.898;4.662;2022-11-25T16:21:52;11.10;99.90
29803;DHT22;16702;50.898;4.662;2022-11-25T16:24:45;11.10;99.90
29803;DHT22;16702;50.898;4.662;2022-11-25T16:27:19;11.10;99.90
29803;DHT22;16702;50.898;4.662;2022-11-25T16:29:55;11.10;99.90
29803;DHT22;16702;50.898;4.662;2022-11-25T16:32:27;11.10;99.90
29803;DHT22;16702;50.898;4.662;2022-11-25T16:35:10;11.00;99.90
29803;DHT22;16702;50.898;4.662;2022-11-25T16:37:41;11.00;99.90
29803;DHT22;16702;50.898;4.662;2022-11-25T16:40:16;11.00;99.90